Terminal Aerodrome Forecast
Issued by NWS

Home | Current Version | Previous Version | Text Only | Print | Product List | Glossary On
Versions: 1 2 3 4 5 6 7 8 9 10 11 12 13 14 15 16 17
000
FTUS42 KTBW 300526
TAFRSW
TAF
KRSW 300526Z 3006/0106 10010KT P6SM FEW050 SCT250
     FM300800 10007KT P6SM SCT025 BKN250
      TEMPO 3010/3014 BKN025
     FM301500 13014G20KT P6SM SCT035 SCT250
     FM010000 12010KT P6SM FEW045 SCT250
     FM010300 11008KT P6SM FEW040 SCT250=

USA.gov is the U.S. government's official web portal to all federal, state and local government web resources and services.